Dauntless Aviation
Greetings, Guest! To participate, [sign up for a free account] or [log in]
Airports Europe Germany
EDSW

Altdorf-Wallburg

Altdorf-Wallburg, GERMANY

Airport Info
Edit

Location

Latitude / Longitude: 48°16'11"N / 7°50'31"E
  48°16.188'N / 7°50.532'E
  48.2698 / 7.8422
Satellite photo at:
Airport distance calculator
From:
Weather Reports

METAR

LFST
18.2nm NW
LFST 210200Z AUTO 24004KT 9999 BKN034 OVC043 14/11 Q1016

TAF

LFST
18.2nm NW
TAF LFST 202300Z 2100/2124 33004KT 9999 FEW025 BKN045 PROB40 TEMPO 2100/2103 5000 SHRA PROB30 TEMPO 2103/2106 3000 BR BECMG 2107/2110 22015G30KT TEMPO 2112/2116 5000 RA PROB30 TEMPO 2116/2118 29020G45KT 2000 TSRA SCT040CB PROB30 TEMPO 2118/2124 -SHRA SCT045TCU
EDSB
32.3nm N
TAF EDSB 201700Z 2018/2118 VRB03KT 9999 SCT030 TEMPO 2021/2102 RA PROB30 TEMPO 2103/2108 4000 BR BKN012 BECMG 2109/2112 23013KT TEMPO 2112/2118 24015G30KT RA PROB40 TEMPO 2113/2118 26020G40KT 4000 SHRA BKN012CB
Safelog

 

Dauntless Aviation

© 2007-2014 Dauntless Aviation, all rights reserved
Information provided via PilotNav comes from a variety of official and unofficial data sources. As errors are possible, do not use PilotNav for primary flight planning purposes. Verify any information that you receive via PilotNav with current and canonical charts and other official documents. The material in this database is subject to database copyrights held by Dauntless Aviation and may not be copied without the express permission of Dauntless Aviation - licenses for use of part of all of this data are available for purchase; enquire via the Dauntless Aviation helpdesk. A number of mechanisms and markers exist in the database to protect against and identify infringement / copyright. Automated queries against this website are stictly prohibited, and all activity is logged and analyzed.